Home   Weather   Slovenia   Kranj   Past weeks
Flag for Slovenia

Past Weather in Kranj, Slovenia — Yesterday and Last 2 Weeks

Currently: 84 °F. Passing clouds. (Weather station: Ljubljana Airport / Brnik, Slovenia). See more current weather

Past Weather in Kranj — Graph

°F

Kranj Temperature Yesterday

Maximum temperature yesterday: 88 °F (at 2:00 pm)
Minimum temperature yesterday: 61 °F (at 5:00 am)
Average temperature yesterday: 75 °F

High & Low Weather Summary for the Past Weeks

 TemperatureHumidityPressure
High90 °F (Jun 23, 3:00 pm)100% (Jun 9, 1:00 am)30.24 "Hg (Jun 9, 1:00 am)
Low46 °F (Jun 15, 5:00 am)27% (Jun 22, 4:30 pm)29.80 "Hg (Jun 21, 1:30 pm)
Average69 °F71%30.03 "Hg
* Reported Jun 8 7:00 pm — Jun 23 7:30 pm, Kranj. Weather by CustomWeather, © 2021

Note: Actual official high and low records may vary slightly from our data, if they occured in-between our weather recording intervals... More about our weather records

Kranj Weather History for the Previous 24 Hours

Scroll right to see more
 ConditionsComfort  
Time TempWeatherWind HumidityBarometerVisibility
7:30 pm
Wed, Jun 23
86 °FPassing clouds.5 mph49%29.98 "HgN/A
7:00 pm86 °FPassing clouds.8 mph49%29.98 "HgN/A
6:30 pm88 °FScattered clouds.8 mph46%29.98 "HgN/A
6:00 pm88 °FScattered clouds.9 mph46%29.98 "HgN/A
5:30 pm90 °FPassing clouds.9 mph41%29.98 "HgN/A
5:00 pm90 °FPassing clouds.6 mph43%29.98 "HgN/A
4:30 pm90 °FPassing clouds.7 mph38%29.98 "HgN/A
4:00 pm90 °FPassing clouds.7 mph38%29.98 "HgN/A
3:30 pm90 °FPassing clouds.5 mph36%29.98 "HgN/A
3:00 pm90 °FPassing clouds.6 mph38%29.98 "HgN/A
2:30 pm88 °FPassing clouds.7 mph40%29.98 "HgN/A
2:00 pm88 °FPassing clouds.6 mph38%29.98 "HgN/A
1:30 pm86 °FPassing clouds.2 mph38%29.98 "HgN/A
1:00 pm86 °FPassing clouds.2 mph38%30.01 "HgN/A
12:30 pm86 °FPassing clouds.3 mph35%30.01 "HgN/A
12:00 pm84 °FPassing clouds.1 mph40%30.01 "HgN/A
11:30 am82 °FPassing clouds.3 mph42%30.01 "HgN/A
11:00 am81 °FPassing clouds.3 mph48%30.04 "HgN/A
10:30 am79 °FPassing clouds.2 mph48%30.04 "HgN/A
10:00 am77 °FPassing clouds.2 mph47%30.04 "HgN/A
9:30 am75 °FSunny.2 mph47%30.04 "Hg10 mi
9:00 am73 °FSunny.No wind57%30.01 "Hg10 mi
8:30 am70 °FSunny.1 mph64%30.01 "Hg10 mi
8:00 am68 °FSunny.1 mph69%30.01 "Hg10 mi
7:30 am64 °FSunny.2 mph73%30.01 "Hg10 mi
7:00 am63 °FSunny.1 mph77%30.01 "Hg10 mi
6:30 am59 °FSunny.1 mph88%30.01 "Hg10 mi
6:00 am57 °FSunny.2 mph88%30.01 "Hg10 mi
5:30 am55 °FSunny.5 mph94%29.98 "Hg10 mi
5:00 am55 °FClear.5 mph94%29.98 "Hg10 mi
4:30 am55 °FClear.1 mph94%29.98 "Hg10 mi
4:00 am55 °FClear.1 mph94%29.98 "Hg10 mi
3:30 am57 °FClear.2 mph88%29.98 "Hg10 mi
2:30 am57 °FClear.1 mph88%29.98 "Hg10 mi
2:00 am59 °FClear.2 mph88%29.98 "Hg10 mi
1:30 am61 °FClear.2 mph83%29.95 "Hg10 mi
1:00 am61 °FPassing clouds.5 mph83%29.95 "HgN/A
12:30 am61 °FPassing clouds.6 mph83%29.95 "HgN/A
12:00 am61 °FClear.5 mph83%29.95 "Hg10 mi
11:30 pm
Tue, Jun 22
63 °FClear.7 mph83%29.95 "Hg10 mi
11:00 pm66 °FPassing clouds.6 mph73%29.95 "HgN/A
10:30 pm70 °FPassing clouds.6 mph60%29.92 "HgN/A
10:00 pm68 °FClear.5 mph69%29.92 "Hg10 mi
9:30 pm70 °FPassing clouds.3 mph64%29.92 "HgN/A
9:00 pm73 °FClear.2 mph61%29.92 "Hg10 mi
Weather by CustomWeather, © 2021

See weather overview